createdAt,value
2022-12-14T00:00:05.148Z,99142.47
2022-12-14T00:05:06.897Z,99140.00
2022-12-14T00:10:08.983Z,99131.66
2022-12-14T00:15:10.546Z,99125.00
2022-12-14T00:20:12.068Z,99111.66
2022-12-14T00:25:13.779Z,99103.34
2022-12-14T00:30:19.047Z,99110.81
2022-12-14T00:35:20.482Z,99109.88
2022-12-14T00:40:21.896Z,99112.25
2022-12-14T00:45:23.325Z,99103.03
2022-12-14T00:50:24.737Z,99100.47
2022-12-14T00:55:26.691Z,99101.31
2022-12-14T01:00:28.103Z,99101.41
2022-12-14T01:05:29.624Z,99105.50
2022-12-14T01:10:31.081Z,99108.06
2022-12-14T01:15:35.134Z,99102.16
2022-12-14T01:20:36.627Z,99102.03
2022-12-14T01:25:38.070Z,99096.09
2022-12-14T01:30:39.765Z,99081.78
2022-12-14T01:35:41.209Z,99085.81
2022-12-14T01:40:42.636Z,99084.09
2022-12-14T01:45:44.056Z,99074.00
2022-12-14T01:50:46.241Z,99074.78
2022-12-14T01:55:52.496Z,99066.47
2022-12-14T02:00:57.501Z,99063.13
2022-12-14T02:06:17.987Z,99068.94
2022-12-14T02:11:31.398Z,99053.91
2022-12-14T02:16:32.995Z,99041.38
2022-12-14T02:22:08.007Z,99035.59
2022-12-14T02:27:25.904Z,99039.03
2022-12-14T02:32:39.463Z,99039.13
2022-12-14T02:38:11.833Z,99038.31
2022-12-14T02:43:30.036Z,99037.44
2022-12-14T02:48:39.382Z,99039.91
2022-12-14T02:54:04.088Z,99032.31
2022-12-14T02:59:08.573Z,99019.72
2022-12-14T03:04:10.896Z,99022.31
2022-12-14T03:09:18.285Z,99021.41
2022-12-14T03:14:27.369Z,99018.03
2022-12-14T03:19:41.488Z,99003.00
2022-12-14T03:24:48.872Z,99009.59
2022-12-14T03:29:56.149Z,99004.66
2022-12-14T03:35:07.599Z,98995.47
2022-12-14T03:40:13.103Z,98986.50
2022-12-14T03:45:43.312Z,98968.31
2022-12-14T03:50:50.280Z,98965.91
2022-12-14T03:55:54.620Z,98960.88
2022-12-14T04:01:18.598Z,98957.41
2022-12-14T04:06:44.285Z,98957.28
2022-12-14T04:12:12.604Z,98948.81
2022-12-14T04:17:38.931Z,98955.44
2022-12-14T04:22:47.204Z,98952.94
2022-12-14T04:27:55.616Z,98948.78
2022-12-14T04:33:25.947Z,98954.59
2022-12-14T04:38:36.106Z,98956.31
2022-12-14T04:43:43.327Z,98955.59
2022-12-14T04:48:50.810Z,98938.19
2022-12-14T04:53:59.723Z,98944.94
2022-12-14T04:59:01.509Z,98945.84
2022-12-14T05:04:54.860Z,98950.03
2022-12-14T05:10:11.224Z,98945.94
2022-12-14T05:15:13.992Z,98950.28
2022-12-14T05:20:21.908Z,98931.22
2022-12-14T05:25:23.376Z,98919.63
2022-12-14T05:30:24.929Z,98927.13
2022-12-14T05:35:26.380Z,98918.03
2022-12-14T05:40:27.882Z,98903.88
2022-12-14T05:45:29.350Z,98915.63
2022-12-14T05:50:31.265Z,98913.22
2022-12-14T05:55:32.674Z,98907.50
2022-12-14T06:00:34.096Z,98897.53
2022-12-14T06:05:35.875Z,98890.00
2022-12-14T06:10:37.325Z,98895.81
2022-12-14T06:15:38.753Z,98885.84
2022-12-14T06:20:40.175Z,98870.81
2022-12-14T06:25:41.580Z,98870.00
2022-12-14T06:30:43.022Z,98857.38
2022-12-14T06:35:47.643Z,98834.75
2022-12-14T06:40:49.092Z,98841.28
2022-12-14T06:45:50.475Z,98815.22
2022-12-14T06:50:52.132Z,98803.50
2022-12-14T06:55:53.522Z,98815.16
2022-12-14T07:00:54.947Z,98823.38
2022-12-14T07:06:01.153Z,98805.78
2022-12-14T07:11:08.483Z,98814.00
2022-12-14T07:16:16.609Z,98828.94
2022-12-14T07:21:19.819Z,98819.75
2022-12-14T07:26:27.536Z,98821.41
2022-12-14T07:31:29.808Z,98808.97
2022-12-14T07:36:32.894Z,98811.38
2022-12-14T07:41:34.347Z,98806.38
2022-12-14T07:46:35.844Z,98805.50
2022-12-14T07:51:41.120Z,98797.06
2022-12-14T07:56:43.399Z,98813.69
2022-12-14T08:01:45.383Z,98803.56
2022-12-14T08:06:48.707Z,98800.16
2022-12-14T08:11:50.333Z,98809.34
2022-12-14T08:16:51.770Z,98809.25
2022-12-14T08:21:53.225Z,98824.16
2022-12-14T08:26:54.724Z,98807.38
2022-12-14T08:31:56.348Z,98778.13
2022-12-14T08:36:57.845Z,98769.13
2022-12-14T08:41:59.275Z,98776.66
2022-12-14T08:47:00.789Z,98773.34
2022-12-14T08:52:02.192Z,98760.06
2022-12-14T08:57:04.503Z,98760.13
2022-12-14T09:02:06.138Z,98759.59
2022-12-14T09:07:07.621Z,98769.69
2022-12-14T09:12:09.117Z,98782.84
2022-12-14T09:17:10.528Z,98776.63
2022-12-14T09:22:13.345Z,98782.09
2022-12-14T09:27:14.832Z,98801.94
2022-12-14T09:32:16.792Z,98798.50
2022-12-14T09:37:18.236Z,98803.50
2022-12-14T09:42:35.510Z,98797.56
2022-12-14T09:47:50.263Z,98784.00
2022-12-14T09:52:54.007Z,98785.53
2022-12-14T09:58:00.230Z,98772.06
2022-12-14T10:03:21.790Z,98769.41
2022-12-14T10:08:29.789Z,98783.91
2022-12-14T10:13:47.647Z,98782.44
2022-12-14T10:19:08.654Z,98788.81
2022-12-14T10:24:17.544Z,98787.84
2022-12-14T10:29:32.317Z,98792.00
2022-12-14T10:34:35.016Z,98802.06
2022-12-14T10:39:49.367Z,98782.66
2022-12-14T10:50:53.819Z,98780.69
2022-12-14T10:56:02.006Z,98780.69
2022-12-14T11:01:03.498Z,98778.47
2022-12-14T11:06:17.476Z,98784.00
2022-12-14T11:11:23.034Z,98780.16
2022-12-14T11:16:36.359Z,98785.09
2022-12-14T11:21:38.928Z,98787.97
2022-12-14T11:26:42.838Z,98782.94
2022-12-14T11:31:52.378Z,98780.53
2022-12-14T11:36:53.932Z,98794.97
2022-12-14T11:41:58.410Z,98790.09
2022-12-14T11:47:00.859Z,98799.59
2022-12-14T11:52:05.291Z,98802.41
2022-12-14T11:57:18.127Z,98804.22
2022-12-14T12:02:30.835Z,98801.16
2022-12-14T12:07:36.127Z,98788.59
2022-12-14T12:12:38.709Z,98797.72
2022-12-14T12:17:46.622Z,98811.19
2022-12-14T12:22:52.040Z,98809.72
2022-12-14T12:28:03.300Z,98814.88
2022-12-14T12:33:36.575Z,98812.50
2022-12-14T12:38:49.604Z,98814.97
2022-12-14T12:43:58.336Z,98814.13
2022-12-14T12:49:07.089Z,98819.06
2022-12-14T12:54:16.251Z,98814.03
2022-12-14T12:59:29.932Z,98818.09
2022-12-14T13:04:36.570Z,98807.63
2022-12-14T13:09:49.799Z,98811.13
2022-12-14T13:14:54.445Z,98817.94
2022-12-14T13:19:59.504Z,98827.34
2022-12-14T13:25:27.120Z,98828.47
2022-12-14T13:30:34.419Z,98827.78
2022-12-14T13:36:18.112Z,98841.09
2022-12-14T13:41:28.581Z,98841.94
2022-12-14T13:46:30.362Z,98851.16
2022-12-14T13:51:37.190Z,98856.22
2022-12-14T13:56:40.090Z,98859.53
2022-12-14T14:01:47.414Z,98865.47
2022-12-14T14:06:50.503Z,98882.94
2022-12-14T14:12:22.495Z,98883.91
2022-12-14T14:17:30.707Z,98889.72
2022-12-14T14:22:32.181Z,98902.19
2022-12-14T14:27:39.564Z,98900.50
2022-12-14T14:32:42.322Z,98919.63
2022-12-14T14:37:55.403Z,98932.09
2022-12-14T14:43:03.991Z,98944.59
2022-12-14T14:48:19.603Z,98952.22
2022-12-14T14:53:32.808Z,98960.69
2022-12-14T14:58:38.002Z,98967.38
2022-12-14T15:04:04.335Z,98977.47
2022-12-14T15:09:31.495Z,98980.81
2022-12-14T15:14:48.906Z,98970.03
2022-12-14T15:19:58.510Z,98972.50
2022-12-14T15:25:01.677Z,98996.75
2022-12-14T15:30:13.993Z,99005.22
2022-12-14T15:35:18.720Z,99022.03
2022-12-14T15:40:26.786Z,99022.88
2022-12-14T15:45:30.305Z,99031.25
2022-12-14T15:50:34.328Z,99033.69
2022-12-14T15:55:40.092Z,99036.19
2022-12-14T16:00:52.610Z,99034.59
2022-12-14T16:05:55.333Z,99039.69
2022-12-14T16:11:00.545Z,99052.22
2022-12-14T16:16:09.472Z,99063.09
2022-12-14T16:21:29.418Z,99064.81
2022-12-14T16:26:38.622Z,99062.28
2022-12-14T16:31:40.226Z,99061.44
2022-12-14T16:36:43.419Z,99070.63
2022-12-14T16:41:56.191Z,99077.28
2022-12-14T16:47:00.559Z,99093.09
2022-12-14T16:52:14.231Z,99099.78
2022-12-14T16:57:22.245Z,99100.72
2022-12-14T17:02:29.076Z,99107.41
2022-12-14T17:07:32.985Z,99098.22
2022-12-14T17:12:34.528Z,99099.06
2022-12-14T17:17:36.521Z,99099.94
2022-12-14T17:22:38.061Z,99124.13
2022-12-14T17:27:40.827Z,99118.25
2022-12-14T17:32:42.801Z,99118.28
2022-12-14T17:37:44.709Z,99125.06
2022-12-14T17:42:53.082Z,99125.94
2022-12-14T17:47:55.208Z,99132.66
2022-12-14T17:52:58.130Z,99155.28
2022-12-14T17:58:00.074Z,99150.25
2022-12-14T18:03:02.681Z,99141.84
2022-12-14T18:08:04.475Z,99148.56
2022-12-14T18:13:05.971Z,99143.59
2022-12-14T18:18:08.136Z,99153.63
2022-12-14T18:23:14.996Z,99149.47
2022-12-14T18:28:17.359Z,99165.34
2022-12-14T18:33:21.939Z,99147.81
2022-12-14T18:38:24.241Z,99163.84
2022-12-14T18:43:28.431Z,99178.00
2022-12-14T18:48:30.332Z,99187.28
2022-12-14T18:53:32.887Z,99200.78
2022-12-14T18:58:34.788Z,99190.19
2022-12-14T19:03:36.705Z,99209.47
2022-12-14T19:08:38.441Z,99207.06
2022-12-14T19:13:39.879Z,99207.97
2022-12-14T19:18:41.351Z,99206.38
2022-12-14T19:23:43.009Z,99215.63
2022-12-14T19:28:44.761Z,99217.34
2022-12-14T19:33:46.181Z,99213.19
2022-12-14T19:38:49.155Z,99211.53
2022-12-14T19:43:51.064Z,99210.69
2022-12-14T19:48:52.624Z,99219.09
2022-12-14T19:53:55.056Z,99216.59
2022-12-14T19:59:00.730Z,99222.44
2022-12-14T20:04:02.326Z,99223.28
2022-12-14T20:09:06.125Z,99229.97
2022-12-14T20:14:10.213Z,99237.38
2022-12-14T20:19:12.521Z,99238.97
2022-12-14T20:24:14.229Z,99246.47
2022-12-14T20:29:15.637Z,99259.06
2022-12-14T20:34:17.348Z,99249.94
2022-12-14T20:39:18.813Z,99254.16
2022-12-14T20:44:20.334Z,99253.38
2022-12-14T20:49:23.176Z,99245.88
2022-12-14T20:54:25.732Z,99255.88
2022-12-14T20:59:27.583Z,99252.56
2022-12-14T21:04:28.986Z,99254.19
2022-12-14T21:09:30.396Z,99258.34
2022-12-14T21:14:37.767Z,99249.16
2022-12-14T21:19:40.154Z,99253.31
2022-12-14T21:25:02.559Z,99256.66
2022-12-14T21:30:06.107Z,99266.66
2022-12-14T21:35:07.903Z,99267.53
2022-12-14T21:40:29.669Z,99274.19
2022-12-14T21:45:31.167Z,99275.03
2022-12-14T21:50:32.604Z,99287.56
2022-12-14T21:55:34.038Z,99283.41
2022-12-14T22:00:37.528Z,99280.06
2022-12-14T22:05:39.365Z,99293.41
2022-12-14T22:10:40.833Z,99279.31
2022-12-14T22:15:42.292Z,99273.47
2022-12-14T22:20:43.736Z,99286.81
2022-12-14T22:25:49.957Z,99290.13
2022-12-14T22:30:51.354Z,99296.75
2022-12-14T22:35:53.067Z,99304.19
2022-12-14T22:41:01.635Z,99295.84
2022-12-14T22:46:03.677Z,99300.06
2022-12-14T22:51:10.188Z,99300.06
2022-12-14T22:56:17.684Z,99295.91
2022-12-14T23:01:20.188Z,99290.94
2022-12-14T23:06:21.978Z,99292.56
2022-12-14T23:11:42.008Z,99282.53
2022-12-14T23:17:02.208Z,99294.97
2022-12-14T23:22:22.289Z,99296.63
2022-12-14T23:27:42.259Z,99296.59
2022-12-14T23:33:02.065Z,99297.41
2022-12-14T23:38:26.457Z,99303.22
2022-12-14T23:43:46.394Z,99325.75
2022-12-14T23:49:09.330Z,99329.91
2022-12-14T23:54:33.889Z,99314.06
2022-12-14T23:59:53.677Z,99317.41
